createdAt,value
2018-12-19T00:00:40.417Z,86.30
2018-12-19T00:03:06.666Z,86.20
2018-12-19T00:05:32.905Z,86.30
2018-12-19T00:07:59.180Z,86.40
2018-12-19T00:10:25.512Z,86.60
2018-12-19T00:12:51.776Z,86.90
2018-12-19T00:15:18.018Z,86.90
2018-12-19T00:17:44.284Z,87.20
2018-12-19T00:20:10.566Z,87.50
2018-12-19T00:22:36.802Z,87.70
2018-12-19T00:25:03.610Z,87.70
2018-12-19T00:27:29.859Z,87.90
2018-12-19T00:29:56.094Z,87.80
2018-12-19T00:32:22.391Z,87.80
2018-12-19T00:34:48.645Z,87.70
2018-12-19T00:37:14.889Z,87.70
2018-12-19T00:39:41.168Z,87.70
2018-12-19T00:42:07.409Z,87.60
2018-12-19T00:44:33.634Z,87.70
2018-12-19T00:46:59.904Z,87.60
2018-12-19T00:49:26.160Z,87.70
2018-12-19T00:51:52.419Z,87.70
2018-12-19T00:54:18.799Z,87.60
2018-12-19T00:56:45.040Z,87.50
2018-12-19T00:59:11.323Z,87.50
2018-12-19T01:01:37.563Z,87.30
2018-12-19T01:04:03.814Z,87.10
2018-12-19T01:06:30.211Z,87.00
2018-12-19T01:08:56.442Z,87.10
2018-12-19T01:11:22.710Z,86.80
2018-12-19T01:13:48.951Z,86.70
2018-12-19T01:16:15.191Z,86.90
2018-12-19T01:18:41.455Z,87.00
2018-12-19T01:21:07.706Z,86.80
2018-12-19T01:23:33.993Z,86.70
2018-12-19T01:26:00.249Z,86.90
2018-12-19T01:28:26.492Z,87.10
2018-12-19T01:30:52.915Z,86.90
2018-12-19T01:33:19.156Z,87.10
2018-12-19T01:35:45.408Z,87.10
2018-12-19T01:38:11.679Z,86.90
2018-12-19T01:40:37.982Z,87.10
2018-12-19T01:43:04.251Z,87.20
2018-12-19T01:45:30.502Z,88.00
2018-12-19T01:47:56.916Z,87.20
2018-12-19T01:50:23.192Z,87.20
2018-12-19T01:52:49.475Z,87.10
2018-12-19T01:55:15.733Z,87.30
2018-12-19T01:57:42.006Z,87.20
2018-12-19T02:00:08.288Z,87.30
2018-12-19T02:02:34.591Z,87.20
2018-12-19T02:05:00.838Z,87.40
2018-12-19T02:07:27.110Z,87.40
2018-12-19T02:09:53.361Z,87.40
2018-12-19T02:12:19.750Z,87.50
2018-12-19T02:14:46.062Z,87.50
2018-12-19T02:17:12.319Z,87.60
2018-12-19T02:19:38.631Z,87.70
2018-12-19T02:22:04.987Z,87.60
2018-12-19T02:24:31.272Z,87.60
2018-12-19T02:26:57.530Z,87.50
2018-12-19T02:29:23.840Z,87.40
2018-12-19T02:31:50.266Z,87.30
2018-12-19T02:34:16.696Z,87.30
2018-12-19T02:36:42.963Z,87.30
2018-12-19T02:39:09.211Z,87.30
2018-12-19T02:41:35.528Z,87.30
2018-12-19T02:44:01.837Z,87.20
2018-12-19T02:46:28.128Z,87.20
2018-12-19T02:48:54.412Z,86.80
2018-12-19T02:51:20.743Z,86.10
2018-12-19T02:53:47.064Z,86.30
2018-12-19T02:56:13.381Z,86.50
2018-12-19T02:58:39.640Z,86.70
2018-12-19T03:01:05.935Z,86.80
2018-12-19T03:03:32.207Z,86.90
2018-12-19T03:05:58.511Z,86.90
2018-12-19T03:08:24.779Z,87.00
2018-12-19T03:10:51.268Z,87.20
2018-12-19T03:13:17.546Z,87.30
2018-12-19T03:15:43.805Z,87.40
2018-12-19T03:18:10.111Z,87.30
2018-12-19T03:20:36.380Z,87.30
2018-12-19T03:23:02.668Z,87.20
2018-12-19T03:25:28.997Z,87.20
2018-12-19T03:27:55.284Z,87.40
2018-12-19T03:30:21.580Z,87.30
2018-12-19T03:32:47.880Z,87.30
2018-12-19T03:35:14.187Z,87.30
2018-12-19T03:37:40.465Z,87.10
2018-12-19T03:40:06.979Z,87.10
2018-12-19T03:42:33.283Z,87.10
2018-12-19T03:44:59.543Z,87.10
2018-12-19T03:47:25.792Z,87.00
2018-12-19T03:49:52.123Z,87.00
2018-12-19T03:52:18.388Z,87.00
2018-12-19T03:54:44.821Z,86.90
2018-12-19T03:57:11.507Z,87.00
2018-12-19T03:59:37.778Z,87.00
2018-12-19T04:02:04.088Z,87.00
2018-12-19T04:04:30.367Z,87.30
2018-12-19T04:06:56.664Z,86.80
2018-12-19T04:09:22.947Z,86.70
2018-12-19T04:11:49.232Z,87.00
2018-12-19T04:14:15.496Z,86.50
2018-12-19T04:16:41.778Z,86.30
2018-12-19T04:19:08.043Z,86.20
2018-12-19T04:21:34.343Z,86.30
2018-12-19T04:24:00.592Z,86.30
2018-12-19T04:26:26.944Z,86.30
2018-12-19T04:28:53.232Z,86.40
2018-12-19T04:31:19.527Z,86.10
2018-12-19T04:33:45.790Z,85.90
2018-12-19T04:36:12.077Z,85.70
2018-12-19T04:38:38.582Z,85.30
2018-12-19T04:41:04.871Z,85.70
2018-12-19T04:43:31.139Z,84.90
2018-12-19T04:45:57.431Z,84.60
2018-12-19T04:48:23.706Z,85.10
2018-12-19T04:50:49.999Z,85.40
2018-12-19T04:53:16.383Z,85.40
2018-12-19T04:55:42.704Z,85.40
2018-12-19T04:58:09.011Z,85.70
2018-12-19T05:00:35.278Z,85.90
2018-12-19T05:03:01.581Z,86.00
2018-12-19T05:05:27.840Z,85.80
2018-12-19T05:07:54.378Z,85.60
2018-12-19T05:10:20.647Z,85.60
2018-12-19T05:12:46.916Z,85.40
2018-12-19T05:15:13.202Z,85.40
2018-12-19T05:17:39.476Z,85.20
2018-12-19T05:20:09.558Z,85.10
2018-12-19T05:22:35.863Z,84.70
2018-12-19T05:25:05.106Z,84.80
2018-12-19T05:27:31.357Z,84.80
2018-12-19T05:29:57.634Z,84.70
2018-12-19T05:32:23.915Z,84.30
2018-12-19T05:34:50.190Z,84.80
2018-12-19T05:37:16.457Z,84.30
2018-12-19T05:39:42.713Z,84.30
2018-12-19T05:42:09.005Z,84.10
2018-12-19T05:44:35.258Z,84.00
2018-12-19T05:47:01.532Z,84.10
2018-12-19T05:49:27.781Z,84.20
2018-12-19T05:51:54.092Z,85.00
2018-12-19T05:54:20.399Z,84.50
2018-12-19T05:56:46.658Z,85.40
2018-12-19T05:59:12.922Z,84.80
2018-12-19T06:01:39.194Z,84.80
2018-12-19T06:04:05.758Z,84.80
2018-12-19T06:06:32.046Z,84.90
2018-12-19T06:08:58.302Z,84.50
2018-12-19T06:11:24.673Z,84.60
2018-12-19T06:13:50.931Z,84.40
2018-12-19T06:16:17.262Z,84.40
2018-12-19T06:18:43.575Z,84.50
2018-12-19T06:21:09.828Z,84.60
2018-12-19T06:23:36.084Z,84.70
2018-12-19T06:26:02.367Z,84.70
2018-12-19T06:28:28.627Z,85.20
2018-12-19T06:30:54.896Z,84.20
2018-12-19T06:33:21.161Z,84.30
2018-12-19T06:35:47.418Z,84.10
2018-12-19T06:38:13.699Z,84.00
2018-12-19T06:40:39.960Z,83.40
2018-12-19T06:43:06.219Z,83.40
2018-12-19T06:45:32.493Z,83.70
2018-12-19T06:47:58.743Z,83.90
2018-12-19T06:50:24.990Z,84.10
2018-12-19T06:52:51.282Z,83.90
2018-12-19T06:55:17.523Z,84.50
2018-12-19T06:57:43.810Z,84.00
2018-12-19T07:00:10.183Z,84.30
2018-12-19T07:02:36.442Z,84.40
2018-12-19T07:05:03.771Z,84.70
2018-12-19T07:07:30.019Z,85.20
2018-12-19T07:09:56.270Z,85.20
2018-12-19T07:12:22.542Z,85.40
2018-12-19T07:14:48.924Z,85.80
2018-12-19T07:17:15.183Z,85.80
2018-12-19T07:19:41.452Z,85.90
2018-12-19T07:22:07.725Z,85.90
2018-12-19T07:24:33.981Z,86.20
2018-12-19T07:27:00.284Z,86.30
2018-12-19T07:29:26.555Z,86.50
2018-12-19T07:31:52.915Z,86.70
2018-12-19T07:34:19.200Z,86.80
2018-12-19T07:36:45.467Z,87.00
2018-12-19T07:39:11.732Z,87.00
2018-12-19T07:41:38.012Z,86.90
2018-12-19T07:44:04.242Z,87.00
2018-12-19T07:46:30.487Z,87.00
2018-12-19T07:48:56.791Z,87.10
2018-12-19T07:51:23.086Z,87.00
2018-12-19T07:53:49.336Z,87.10
2018-12-19T07:56:15.827Z,87.20
2018-12-19T07:58:42.148Z,87.10
2018-12-19T08:01:08.403Z,87.20
2018-12-19T08:03:34.839Z,87.20
2018-12-19T08:06:01.080Z,87.20
2018-12-19T08:08:27.362Z,87.00
2018-12-19T08:10:53.661Z,87.10
2018-12-19T08:13:19.916Z,87.10
2018-12-19T08:15:46.196Z,87.20
2018-12-19T08:18:12.480Z,87.30
2018-12-19T08:20:39.396Z,87.00
2018-12-19T08:23:05.670Z,86.80
2018-12-19T08:25:31.927Z,86.90
2018-12-19T08:27:58.199Z,86.90
2018-12-19T08:30:24.467Z,86.80
2018-12-19T08:32:50.718Z,86.80
2018-12-19T08:35:17.021Z,86.90
2018-12-19T08:37:43.274Z,87.00
2018-12-19T08:40:09.522Z,86.80
2018-12-19T08:42:35.799Z,87.00
2018-12-19T08:45:02.327Z,86.90
2018-12-19T08:47:28.598Z,86.80
2018-12-19T08:49:54.871Z,86.50
2018-12-19T08:52:21.139Z,86.40
2018-12-19T08:54:47.399Z,87.10
2018-12-19T08:57:13.697Z,86.30
2018-12-19T08:59:39.961Z,86.30
2018-12-19T09:02:06.267Z,86.30
2018-12-19T09:04:32.539Z,85.90
2018-12-19T09:06:58.779Z,86.10
2018-12-19T09:09:25.076Z,86.10
2018-12-19T09:11:51.363Z,87.10
2018-12-19T09:14:17.667Z,86.60
2018-12-19T09:16:43.951Z,86.70
2018-12-19T09:19:10.225Z,86.60
2018-12-19T09:21:36.489Z,86.30
2018-12-19T09:24:02.771Z,86.40
2018-12-19T09:26:29.041Z,86.60
2018-12-19T09:28:55.343Z,86.60
2018-12-19T09:31:21.601Z,86.70
2018-12-19T09:33:47.847Z,86.80
2018-12-19T09:36:14.137Z,86.70
2018-12-19T09:38:41.061Z,86.70
2018-12-19T09:41:12.301Z,86.60
2018-12-19T09:43:35.755Z,86.30
2018-12-19T09:46:02.012Z,86.30
2018-12-19T09:48:28.309Z,86.30
2018-12-19T09:50:54.579Z,86.30
2018-12-19T09:53:20.959Z,86.40
2018-12-19T09:55:47.230Z,85.40
2018-12-19T09:58:13.508Z,85.30
2018-12-19T10:00:39.818Z,85.90
2018-12-19T10:03:06.084Z,85.90
2018-12-19T10:05:32.327Z,86.10
2018-12-19T10:07:58.642Z,86.10
2018-12-19T10:10:25.014Z,85.70
2018-12-19T10:12:51.271Z,85.50
2018-12-19T10:15:17.546Z,85.10
2018-12-19T10:17:43.800Z,85.00
2018-12-19T10:20:10.203Z,85.30
2018-12-19T10:22:36.979Z,85.40
2018-12-19T10:25:10.662Z,85.40
2018-12-19T10:27:36.953Z,85.50
2018-12-19T10:30:06.959Z,86.20
2018-12-19T10:32:35.260Z,85.40
2018-12-19T10:35:01.536Z,84.80
2018-12-19T10:37:27.788Z,84.60
2018-12-19T10:39:54.196Z,84.00
2018-12-19T10:42:20.463Z,84.50
2018-12-19T10:44:46.730Z,84.70
2018-12-19T10:47:12.985Z,84.30
2018-12-19T10:49:39.267Z,84.30
2018-12-19T10:52:05.511Z,84.70
2018-12-19T10:54:31.767Z,85.10
2018-12-19T10:56:58.148Z,85.10
2018-12-19T10:59:24.403Z,85.20
2018-12-19T11:01:50.655Z,85.10
2018-12-19T11:04:16.953Z,85.50
2018-12-19T11:06:43.228Z,85.20
2018-12-19T11:09:09.524Z,84.50
2018-12-19T11:11:35.777Z,84.80
2018-12-19T11:14:02.065Z,85.40
2018-12-19T11:16:28.317Z,84.80
2018-12-19T11:18:54.577Z,84.50
2018-12-19T11:21:20.839Z,84.60
2018-12-19T11:23:47.143Z,84.80
2018-12-19T11:26:13.438Z,84.40
2018-12-19T11:28:39.699Z,84.70
2018-12-19T11:31:06.143Z,85.00
2018-12-19T11:33:32.402Z,84.50
2018-12-19T11:35:58.684Z,84.50
2018-12-19T11:38:24.978Z,84.70
2018-12-19T11:40:51.260Z,83.60
2018-12-19T11:43:17.534Z,83.00
2018-12-19T11:45:43.832Z,83.10
2018-12-19T11:48:10.104Z,83.90
2018-12-19T11:50:36.343Z,84.00
2018-12-19T11:53:02.612Z,84.10
2018-12-19T11:55:28.933Z,84.10
2018-12-19T11:57:55.198Z,84.10
2018-12-19T12:00:21.581Z,84.10
2018-12-19T12:02:47.900Z,84.50
2018-12-19T12:05:14.226Z,84.50
2018-12-19T12:07:40.652Z,84.50
2018-12-19T12:10:07.280Z,84.10
2018-12-19T12:12:33.564Z,83.60
2018-12-19T12:14:59.829Z,83.60
2018-12-19T12:17:26.133Z,83.40
2018-12-19T12:19:52.402Z,83.50
2018-12-19T12:22:18.702Z,83.50
2018-12-19T12:24:44.988Z,83.90
2018-12-19T12:27:11.259Z,84.20
2018-12-19T12:29:37.548Z,84.40
2018-12-19T12:32:03.836Z,84.30
2018-12-19T12:34:30.092Z,84.30
2018-12-19T12:36:56.382Z,84.90
2018-12-19T12:39:22.648Z,84.10
2018-12-19T12:41:52.311Z,84.20
2018-12-19T12:44:17.290Z,84.20
2018-12-19T12:46:43.685Z,84.30
2018-12-19T12:49:09.967Z,84.40
2018-12-19T12:51:36.674Z,84.20
2018-12-19T12:54:02.990Z,84.10
2018-12-19T12:56:29.289Z,84.20
2018-12-19T12:58:55.595Z,84.00
2018-12-19T13:01:21.940Z,84.90
2018-12-19T13:03:48.221Z,84.10
2018-12-19T13:06:14.475Z,83.80
2018-12-19T13:08:40.871Z,83.00
2018-12-19T13:11:07.317Z,83.30
2018-12-19T13:13:33.599Z,83.20
2018-12-19T13:15:59.938Z,82.90
2018-12-19T13:18:26.191Z,82.80
2018-12-19T13:20:52.457Z,83.70
2018-12-19T13:23:18.737Z,83.90
2018-12-19T13:25:45.053Z,83.90
2018-12-19T13:28:11.328Z,83.70
2018-12-19T13:30:37.579Z,83.60
2018-12-19T13:33:03.829Z,83.50
2018-12-19T13:35:30.114Z,83.60
2018-12-19T13:37:56.365Z,83.90
2018-12-19T13:40:22.614Z,83.80
2018-12-19T13:42:48.879Z,83.60
2018-12-19T13:45:15.176Z,84.30
2018-12-19T13:47:41.430Z,84.50
2018-12-19T13:50:07.786Z,83.50
2018-12-19T13:52:34.106Z,83.80
2018-12-19T13:55:00.421Z,83.80
2018-12-19T13:57:28.271Z,83.90
2018-12-19T13:59:54.913Z,83.90
2018-12-19T14:02:21.203Z,83.20
2018-12-19T14:04:47.724Z,83.50
2018-12-19T14:07:14.338Z,83.60
2018-12-19T14:09:40.619Z,83.20
2018-12-19T14:12:12.229Z,83.20
2018-12-19T14:14:35.239Z,83.00
2018-12-19T14:17:01.498Z,83.00
2018-12-19T14:19:27.776Z,82.90
2018-12-19T14:21:54.035Z,83.50
2018-12-19T14:24:20.294Z,83.10
2018-12-19T14:26:46.591Z,83.30
2018-12-19T14:29:12.865Z,83.60
2018-12-19T14:31:39.208Z,83.80
2018-12-19T14:34:05.451Z,83.90
2018-12-19T14:36:31.705Z,83.80
2018-12-19T14:38:58.040Z,83.70
2018-12-19T14:41:24.321Z,83.80
2018-12-19T14:43:50.600Z,83.30
2018-12-19T14:46:17.771Z,83.70
2018-12-19T14:48:44.034Z,84.30
2018-12-19T14:51:10.374Z,83.70
2018-12-19T14:53:36.631Z,83.90
2018-12-19T14:56:03.067Z,83.90
2018-12-19T14:58:29.318Z,84.00
2018-12-19T15:00:55.645Z,84.30
2018-12-19T15:03:21.915Z,84.30
2018-12-19T15:05:48.167Z,84.50
2018-12-19T15:08:14.447Z,84.60
2018-12-19T15:10:40.712Z,84.90
2018-12-19T15:13:07.013Z,84.80
2018-12-19T15:15:33.309Z,84.80
2018-12-19T15:17:59.578Z,85.60
2018-12-19T15:20:25.870Z,85.00
2018-12-19T15:22:52.147Z,85.10
2018-12-19T15:25:18.421Z,84.80
2018-12-19T15:27:44.691Z,84.90
2018-12-19T15:30:11.124Z,84.30
2018-12-19T15:32:38.149Z,84.10
2018-12-19T15:35:04.664Z,84.30
2018-12-19T15:37:30.974Z,84.50
2018-12-19T15:39:57.219Z,84.50
2018-12-19T15:42:23.518Z,83.80
2018-12-19T15:44:49.782Z,83.90
2018-12-19T15:47:16.044Z,83.60
2018-12-19T15:49:42.346Z,83.80
2018-12-19T15:52:08.594Z,84.10
2018-12-19T15:54:34.905Z,84.00
2018-12-19T15:57:01.203Z,84.60
2018-12-19T15:59:27.487Z,84.90
2018-12-19T16:01:53.734Z,85.50
2018-12-19T16:04:20.010Z,84.70
2018-12-19T16:06:46.260Z,84.70
2018-12-19T16:09:12.551Z,84.90
2018-12-19T16:11:38.902Z,85.10
2018-12-19T16:14:05.179Z,86.10
2018-12-19T16:16:31.450Z,85.50
2018-12-19T16:18:57.713Z,85.70
2018-12-19T16:21:23.981Z,85.90
2018-12-19T16:23:50.271Z,85.70
2018-12-19T16:26:16.541Z,85.50
2018-12-19T16:28:42.813Z,85.60
2018-12-19T16:31:09.259Z,85.20
2018-12-19T16:33:35.512Z,85.20
2018-12-19T16:36:01.794Z,85.30
2018-12-19T16:38:28.142Z,85.50
2018-12-19T16:40:54.436Z,85.40
2018-12-19T16:43:20.796Z,85.10
2018-12-19T16:45:47.150Z,85.00
2018-12-19T16:48:13.408Z,85.00
2018-12-19T16:50:39.823Z,85.30
2018-12-19T16:53:06.094Z,85.60
2018-12-19T16:55:32.364Z,85.60
2018-12-19T16:57:58.830Z,85.50
2018-12-19T17:00:25.536Z,85.50
2018-12-19T17:02:52.135Z,85.50
2018-12-19T17:05:18.428Z,85.30
2018-12-19T17:07:44.687Z,85.20
2018-12-19T17:10:10.984Z,85.50
2018-12-19T17:12:37.289Z,85.70
2018-12-19T17:15:04.184Z,85.60
2018-12-19T17:17:30.962Z,85.40
2018-12-19T17:19:57.287Z,85.60
2018-12-19T17:22:23.599Z,85.70
2018-12-19T17:24:49.872Z,85.70
2018-12-19T17:27:16.147Z,85.80
2018-12-19T17:29:42.792Z,85.70
2018-12-19T17:32:09.624Z,85.90
2018-12-19T17:34:36.161Z,85.90
2018-12-19T17:37:02.801Z,86.00
2018-12-19T17:39:29.101Z,86.20
2018-12-19T17:41:55.391Z,85.90
2018-12-19T17:44:21.643Z,85.80
2018-12-19T17:46:47.931Z,85.90
2018-12-19T17:49:14.924Z,85.90
2018-12-19T17:51:41.587Z,86.00
2018-12-19T17:54:07.966Z,86.00
2018-12-19T17:56:34.374Z,86.00
2018-12-19T17:59:00.943Z,85.90
2018-12-19T18:01:27.615Z,85.90
2018-12-19T18:03:54.015Z,85.70
2018-12-19T18:06:20.307Z,85.70
2018-12-19T18:08:46.603Z,85.80
2018-12-19T18:11:13.052Z,85.70
2018-12-19T18:13:40.239Z,85.70
2018-12-19T18:16:07.111Z,85.50
2018-12-19T18:18:33.508Z,85.40
2018-12-19T18:21:00.161Z,85.50
2018-12-19T18:23:26.916Z,85.60
2018-12-19T18:25:53.202Z,85.40
2018-12-19T18:28:19.586Z,85.50
2018-12-19T18:30:45.925Z,85.70
2018-12-19T18:33:12.183Z,85.70
2018-12-19T18:35:38.503Z,85.70
2018-12-19T18:38:05.193Z,85.70
2018-12-19T18:40:31.510Z,86.60
2018-12-19T18:42:58.145Z,85.90
2018-12-19T18:45:24.428Z,85.80
2018-12-19T18:47:50.728Z,85.80
2018-12-19T18:50:19.052Z,85.30
2018-12-19T18:52:45.779Z,85.40
2018-12-19T18:55:12.314Z,85.50
2018-12-19T18:57:38.745Z,85.50
2018-12-19T19:00:07.105Z,85.60
2018-12-19T19:02:33.679Z,85.70
2018-12-19T19:05:00.037Z,85.70
2018-12-19T19:07:26.355Z,85.70
2018-12-19T19:09:52.874Z,85.60
2018-12-19T19:12:19.182Z,85.70
2018-12-19T19:14:45.508Z,85.50
2018-12-19T19:17:11.823Z,86.10
2018-12-19T19:19:38.107Z,85.30
2018-12-19T19:22:04.504Z,85.30
2018-12-19T19:24:30.795Z,85.40
2018-12-19T19:26:57.086Z,85.40
2018-12-19T19:29:23.364Z,85.30
2018-12-19T19:31:49.667Z,85.30
2018-12-19T19:34:16.070Z,85.20
2018-12-19T19:36:42.346Z,85.10
2018-12-19T19:39:08.627Z,85.20
2018-12-19T19:41:34.940Z,84.60
2018-12-19T19:44:01.267Z,84.70
2018-12-19T19:46:27.570Z,84.60
2018-12-19T19:48:53.847Z,84.60
2018-12-19T19:51:20.131Z,84.60
2018-12-19T19:53:46.453Z,85.30
2018-12-19T19:56:12.795Z,85.00
2018-12-19T19:58:39.039Z,85.00
2018-12-19T20:01:05.338Z,85.10
2018-12-19T20:03:31.664Z,85.20
2018-12-19T20:05:58.074Z,85.00
2018-12-19T20:08:24.357Z,84.80
2018-12-19T20:10:50.666Z,84.80
2018-12-19T20:13:16.941Z,84.90
2018-12-19T20:15:43.294Z,85.00
2018-12-19T20:18:09.641Z,85.00
2018-12-19T20:20:35.907Z,85.00
2018-12-19T20:23:02.254Z,85.00
2018-12-19T20:25:28.594Z,85.20
2018-12-19T20:27:54.944Z,85.20
2018-12-19T20:30:21.387Z,85.10
2018-12-19T20:32:47.672Z,85.30
2018-12-19T20:35:13.974Z,85.40
2018-12-19T20:37:40.321Z,85.30
2018-12-19T20:40:06.704Z,85.20
2018-12-19T20:42:33.000Z,85.30
2018-12-19T20:44:59.399Z,85.40
2018-12-19T20:47:25.688Z,85.40
2018-12-19T20:49:52.010Z,84.80
2018-12-19T20:52:18.271Z,84.40
2018-12-19T20:54:44.593Z,83.90
2018-12-19T20:57:11.056Z,84.20
2018-12-19T20:59:37.356Z,84.20
2018-12-19T21:02:04.034Z,84.20
2018-12-19T21:04:30.339Z,84.00
2018-12-19T21:06:56.691Z,84.30
2018-12-19T21:09:22.985Z,84.50
2018-12-19T21:11:49.319Z,84.80
2018-12-19T21:14:15.678Z,85.00
2018-12-19T21:16:48.027Z,85.10
2018-12-19T21:19:14.305Z,85.20
2018-12-19T21:21:40.578Z,85.00
2018-12-19T21:24:06.839Z,84.80
2018-12-19T21:26:33.105Z,85.10
2018-12-19T21:28:59.364Z,85.70
2018-12-19T21:31:25.636Z,85.40
2018-12-19T21:33:51.951Z,85.60
2018-12-19T21:36:18.244Z,85.80
2018-12-19T21:38:44.577Z,85.70
2018-12-19T21:41:10.934Z,85.80
2018-12-19T21:43:37.232Z,85.80
2018-12-19T21:46:03.529Z,86.00
2018-12-19T21:48:29.921Z,86.10
2018-12-19T21:50:56.180Z,86.00
2018-12-19T21:53:22.498Z,86.10
2018-12-19T21:55:48.852Z,86.20
2018-12-19T21:58:15.182Z,86.10
2018-12-19T22:00:41.550Z,86.10
2018-12-19T22:03:08.282Z,86.00
2018-12-19T22:05:34.596Z,85.80
2018-12-19T22:08:00.856Z,85.80
2018-12-19T22:10:27.148Z,85.50
2018-12-19T22:12:53.492Z,85.30
2018-12-19T22:15:19.865Z,85.40
2018-12-19T22:17:47.090Z,84.10
2018-12-19T22:20:13.471Z,84.70
2018-12-19T22:22:39.861Z,85.20
2018-12-19T22:25:06.167Z,85.30
2018-12-19T22:27:32.524Z,85.20
2018-12-19T22:29:58.915Z,84.80
2018-12-19T22:32:25.459Z,84.80
2018-12-19T22:34:51.707Z,84.80
2018-12-19T22:37:18.113Z,85.40
2018-12-19T22:39:44.370Z,85.30
2018-12-19T22:42:10.669Z,85.00
2018-12-19T22:44:37.023Z,84.90
2018-12-19T22:47:03.460Z,85.00
2018-12-19T22:49:29.819Z,85.10
2018-12-19T22:51:56.126Z,85.40
2018-12-19T22:54:22.582Z,85.40
2018-12-19T22:56:48.988Z,85.60
2018-12-19T22:59:15.324Z,85.60
2018-12-19T23:01:47.871Z,85.50
2018-12-19T23:04:14.268Z,85.60
2018-12-19T23:06:40.639Z,85.60
2018-12-19T23:09:07.134Z,85.40
2018-12-19T23:11:33.459Z,85.60
2018-12-19T23:13:59.909Z,85.60
2018-12-19T23:16:26.694Z,85.70
2018-12-19T23:18:53.035Z,85.70
2018-12-19T23:21:19.618Z,85.60
2018-12-19T23:23:45.907Z,86.00
2018-12-19T23:26:12.230Z,85.90
2018-12-19T23:28:38.520Z,85.80
2018-12-19T23:31:04.840Z,85.70
2018-12-19T23:33:31.127Z,85.60
2018-12-19T23:35:57.471Z,85.60
2018-12-19T23:38:23.888Z,85.10
2018-12-19T23:40:50.212Z,85.20
2018-12-19T23:43:16.488Z,85.30
2018-12-19T23:45:42.771Z,85.30
2018-12-19T23:48:09.272Z,85.10
2018-12-19T23:50:35.776Z,85.20
2018-12-19T23:53:02.355Z,85.40
2018-12-19T23:55:28.754Z,86.10
2018-12-19T23:57:55.160Z,85.50
